createdAt,value
2017-10-15T00:00:50.930Z,14.85
2017-10-15T00:03:18.682Z,14.90
2017-10-15T00:05:46.282Z,14.87
2017-10-15T00:08:13.978Z,14.83
2017-10-15T00:10:41.590Z,14.81
2017-10-15T00:13:09.324Z,14.71
2017-10-15T00:15:37.001Z,14.96
2017-10-15T00:18:04.609Z,14.83
2017-10-15T00:20:32.258Z,14.89
2017-10-15T00:22:59.917Z,14.88
2017-10-15T00:25:28.337Z,14.95
2017-10-15T00:27:56.866Z,14.66
2017-10-15T00:30:24.942Z,14.58
2017-10-15T00:32:53.218Z,14.64
2017-10-15T00:35:23.679Z,14.55
2017-10-15T00:37:52.181Z,14.37
2017-10-15T00:40:20.518Z,14.20
2017-10-15T00:42:49.130Z,14.13
2017-10-15T00:45:16.786Z,14.09
2017-10-15T00:47:45.226Z,14.03
2017-10-15T00:50:13.011Z,13.90
2017-10-15T00:52:40.727Z,13.85
2017-10-15T00:55:08.518Z,13.87
2017-10-15T00:57:36.151Z,13.88
2017-10-15T01:00:05.213Z,13.90
2017-10-15T01:02:32.971Z,13.78
2017-10-15T01:05:00.572Z,13.51
2017-10-15T01:07:28.174Z,13.58
2017-10-15T01:09:55.751Z,13.49
2017-10-15T01:12:23.519Z,13.25
2017-10-15T01:14:51.292Z,13.16
2017-10-15T01:17:20.540Z,12.91
2017-10-15T01:19:48.254Z,12.82
2017-10-15T01:22:25.610Z,13.09
2017-10-15T01:24:53.238Z,12.95
2017-10-15T01:27:20.861Z,13.02
2017-10-15T01:29:48.517Z,12.86
2017-10-15T01:32:16.122Z,12.72
2017-10-15T01:34:43.711Z,12.47
2017-10-15T01:37:11.531Z,12.58
2017-10-15T01:39:39.239Z,12.63
2017-10-15T01:42:07.142Z,12.67
2017-10-15T01:44:34.950Z,12.59
2017-10-15T01:47:02.588Z,12.40
2017-10-15T01:49:30.376Z,12.12
2017-10-15T01:51:58.168Z,12.01
2017-10-15T01:54:25.787Z,11.61
2017-10-15T01:56:53.582Z,11.81
2017-10-15T01:59:22.183Z,11.93
2017-10-15T02:01:50.576Z,12.02
2017-10-15T02:04:18.102Z,12.15
2017-10-15T02:06:45.676Z,12.05
2017-10-15T02:09:13.342Z,12.05
2017-10-15T02:11:40.922Z,12.06
2017-10-15T02:14:08.519Z,12.15
2017-10-15T02:16:36.140Z,12.15
2017-10-15T02:19:03.834Z,12.19
2017-10-15T02:21:31.458Z,11.89
2017-10-15T02:23:59.065Z,12.19
2017-10-15T02:26:26.880Z,12.13
2017-10-15T02:28:54.618Z,11.91
2017-10-15T02:31:22.224Z,11.94
2017-10-15T02:33:49.824Z,11.95
2017-10-15T02:36:17.422Z,11.76
2017-10-15T02:38:45.096Z,11.84
2017-10-15T02:41:12.783Z,11.95
2017-10-15T02:43:40.401Z,12.05
2017-10-15T02:46:08.081Z,12.01
2017-10-15T02:48:35.846Z,11.89
2017-10-15T02:51:03.420Z,11.90
2017-10-15T02:53:31.007Z,11.88
2017-10-15T02:55:58.569Z,11.77
2017-10-15T02:58:26.167Z,11.75
2017-10-15T03:00:53.823Z,11.75
2017-10-15T03:03:21.379Z,11.72
2017-10-15T03:05:49.188Z,11.72
2017-10-15T03:08:16.849Z,11.58
2017-10-15T03:10:44.647Z,11.63
2017-10-15T03:13:12.230Z,11.59
2017-10-15T03:15:39.907Z,11.70
2017-10-15T03:18:07.660Z,11.60
2017-10-15T03:20:35.250Z,11.58
2017-10-15T03:23:02.965Z,11.44
2017-10-15T03:25:30.588Z,11.42
2017-10-15T03:27:58.385Z,11.49
2017-10-15T03:30:25.998Z,11.49
2017-10-15T03:32:54.492Z,11.25
2017-10-15T03:35:22.097Z,11.26
2017-10-15T03:37:49.687Z,11.17
2017-10-15T03:40:17.456Z,11.14
2017-10-15T03:42:45.064Z,11.35
2017-10-15T03:45:12.675Z,11.31
2017-10-15T03:47:40.448Z,11.27
2017-10-15T03:50:08.084Z,11.17
2017-10-15T03:52:35.711Z,11.13
2017-10-15T03:55:03.297Z,11.12
2017-10-15T03:57:31.111Z,11.02
2017-10-15T03:59:59.056Z,10.91
2017-10-15T04:02:26.660Z,10.85
2017-10-15T04:04:54.276Z,10.92
2017-10-15T04:07:21.914Z,10.91
2017-10-15T04:09:49.554Z,10.86
2017-10-15T04:12:17.430Z,10.85
2017-10-15T04:14:45.082Z,11.00
2017-10-15T04:17:13.107Z,10.95
2017-10-15T04:19:41.018Z,10.84
2017-10-15T04:22:09.513Z,10.66
2017-10-15T04:24:37.125Z,10.77
2017-10-15T04:27:04.948Z,10.76
2017-10-15T04:29:33.178Z,10.71
2017-10-15T04:32:00.779Z,10.42
2017-10-15T04:34:28.344Z,10.43
2017-10-15T04:36:56.194Z,10.00
2017-10-15T04:39:23.846Z,10.22
2017-10-15T04:41:51.676Z,10.40
2017-10-15T04:44:19.488Z,10.63
2017-10-15T04:46:47.715Z,10.74
2017-10-15T04:49:15.254Z,10.69
2017-10-15T04:51:42.807Z,10.78
2017-10-15T04:54:10.434Z,11.06
2017-10-15T04:56:38.259Z,11.21
2017-10-15T04:59:06.025Z,11.41
2017-10-15T05:01:33.679Z,11.82
2017-10-15T05:04:01.910Z,12.02
2017-10-15T05:06:29.532Z,12.43
2017-10-15T05:08:57.186Z,12.99
2017-10-15T05:11:29.335Z,13.06
2017-10-15T05:13:57.090Z,13.34
2017-10-15T05:16:27.106Z,13.81
2017-10-15T05:18:57.120Z,14.26
2017-10-15T05:21:26.928Z,14.60
2017-10-15T05:26:36.145Z,15.34
2017-10-15T05:29:06.484Z,15.38
2017-10-15T05:31:42.259Z,15.71
2017-10-15T05:34:10.135Z,16.02
2017-10-15T05:36:39.890Z,16.71
2017-10-15T05:39:09.148Z,16.87
2017-10-15T05:41:37.244Z,17.37
2017-10-15T05:44:06.018Z,17.82
2017-10-15T05:46:33.681Z,17.70
2017-10-15T05:49:01.294Z,18.12
2017-10-15T05:51:31.047Z,18.58
2017-10-15T05:53:59.341Z,19.00
2017-10-15T05:56:27.336Z,18.03
2017-10-15T05:58:55.633Z,18.39
2017-10-15T06:01:24.498Z,18.79
2017-10-15T06:03:52.523Z,17.78
2017-10-15T06:06:20.333Z,18.70
2017-10-15T06:08:53.981Z,19.58
2017-10-15T06:11:22.650Z,19.98
2017-10-15T06:13:50.252Z,20.27
2017-10-15T06:16:18.288Z,20.37
2017-10-15T06:18:45.868Z,20.91
2017-10-15T06:21:14.300Z,21.27
2017-10-15T06:23:47.451Z,21.11
2017-10-15T06:26:18.418Z,21.50
2017-10-15T06:28:46.810Z,21.69
2017-10-15T06:31:16.860Z,21.85
2017-10-15T06:33:47.575Z,21.56
2017-10-15T06:36:17.004Z,22.06
2017-10-15T06:38:44.843Z,22.04
2017-10-15T06:41:12.391Z,22.46
2017-10-15T06:43:39.965Z,21.08
2017-10-15T06:46:07.614Z,21.91
2017-10-15T06:48:35.354Z,22.76
2017-10-15T06:51:03.557Z,22.98
2017-10-15T06:53:37.300Z,23.22
2017-10-15T06:56:09.141Z,23.64
2017-10-15T06:58:36.723Z,23.95
2017-10-15T07:01:04.474Z,24.40
2017-10-15T07:03:32.056Z,23.81
2017-10-15T07:05:59.699Z,24.02
2017-10-15T07:08:27.554Z,24.50
2017-10-15T07:10:56.515Z,25.14
2017-10-15T07:13:24.334Z,24.59
2017-10-15T07:15:51.946Z,24.43
2017-10-15T07:18:19.551Z,24.50
2017-10-15T07:20:48.250Z,25.45
2017-10-15T07:23:18.918Z,24.66
2017-10-15T07:25:46.862Z,24.76
2017-10-15T07:28:14.500Z,25.15
2017-10-15T07:30:42.135Z,25.47
2017-10-15T07:33:09.925Z,25.99
2017-10-15T07:35:37.491Z,25.44
2017-10-15T07:38:05.100Z,26.24
2017-10-15T07:40:32.882Z,26.32
2017-10-15T07:43:00.427Z,26.53
2017-10-15T07:45:28.158Z,26.38
2017-10-15T07:47:55.743Z,26.20
2017-10-15T07:50:23.375Z,26.33
2017-10-15T07:52:51.039Z,26.40
2017-10-15T07:55:18.567Z,27.17
2017-10-15T07:57:46.322Z,27.47
2017-10-15T08:00:13.951Z,27.23
2017-10-15T08:02:42.547Z,27.12
2017-10-15T08:05:11.321Z,26.43
2017-10-15T08:07:38.912Z,27.29
2017-10-15T08:10:07.428Z,27.39
2017-10-15T08:12:35.124Z,27.37
2017-10-15T08:15:02.746Z,26.84
2017-10-15T08:17:31.321Z,26.97
2017-10-15T08:19:59.062Z,26.84
2017-10-15T08:22:26.702Z,27.45
2017-10-15T08:24:54.404Z,27.18
2017-10-15T08:27:21.988Z,26.94
2017-10-15T08:29:51.310Z,26.83
2017-10-15T08:32:19.587Z,27.63
2017-10-15T08:34:49.172Z,27.11
2017-10-15T08:37:18.477Z,27.62
2017-10-15T08:39:47.660Z,27.90
2017-10-15T08:42:15.755Z,27.00
2017-10-15T08:44:43.825Z,26.72
2017-10-15T08:47:13.355Z,26.94
2017-10-15T08:49:41.225Z,26.63
2017-10-15T08:52:11.321Z,27.02
2017-10-15T08:54:40.158Z,26.73
2017-10-15T08:57:09.446Z,26.45
2017-10-15T08:59:39.459Z,26.73
2017-10-15T09:02:08.904Z,26.44
2017-10-15T09:04:38.494Z,26.65
2017-10-15T09:07:06.940Z,26.96
2017-10-15T09:09:34.605Z,26.92
2017-10-15T09:12:02.215Z,26.86
2017-10-15T09:14:30.020Z,27.23
2017-10-15T09:16:57.618Z,27.33
2017-10-15T09:19:25.151Z,27.34
2017-10-15T09:21:52.718Z,27.06
2017-10-15T09:24:20.320Z,26.88
2017-10-15T09:26:47.838Z,26.17
2017-10-15T09:29:15.465Z,25.78
2017-10-15T09:31:43.116Z,26.17
2017-10-15T09:34:10.665Z,26.64
2017-10-15T09:36:38.422Z,27.02
2017-10-15T09:39:06.031Z,26.35
2017-10-15T09:41:33.566Z,27.02
2017-10-15T09:44:01.487Z,26.62
2017-10-15T09:46:29.082Z,25.74
2017-10-15T09:48:56.608Z,25.35
2017-10-15T09:51:24.156Z,25.13
2017-10-15T09:53:51.804Z,25.79
2017-10-15T09:56:19.376Z,25.74
2017-10-15T09:58:46.981Z,25.43
2017-10-15T10:01:14.564Z,25.70
2017-10-15T10:03:42.108Z,25.77
2017-10-15T10:06:09.670Z,25.89
2017-10-15T10:08:37.271Z,25.75
2017-10-15T10:11:04.882Z,25.47
2017-10-15T10:13:33.593Z,25.66
2017-10-15T10:16:01.175Z,25.84
2017-10-15T10:18:28.727Z,26.07
2017-10-15T10:20:56.302Z,25.88
2017-10-15T10:23:23.965Z,25.76
2017-10-15T10:25:51.816Z,25.76
2017-10-15T10:28:19.394Z,25.70
2017-10-15T10:30:47.014Z,25.62
2017-10-15T10:33:14.538Z,25.87
2017-10-15T10:35:42.124Z,26.09
2017-10-15T10:38:09.794Z,25.66
2017-10-15T10:40:37.430Z,25.80
2017-10-15T10:43:04.973Z,25.57
2017-10-15T10:45:32.566Z,25.42
2017-10-15T10:48:00.377Z,25.61
2017-10-15T10:50:27.924Z,26.05
2017-10-15T10:52:55.518Z,25.89
2017-10-15T10:55:23.043Z,25.79
2017-10-15T10:57:50.600Z,25.37
2017-10-15T11:00:18.223Z,25.80
2017-10-15T11:02:45.998Z,25.83
2017-10-15T11:05:13.561Z,25.71
2017-10-15T11:07:41.158Z,25.82
2017-10-15T11:10:08.962Z,25.69
2017-10-15T11:12:36.496Z,25.37
2017-10-15T11:15:04.411Z,25.71
2017-10-15T11:17:31.992Z,25.78
2017-10-15T11:19:59.763Z,25.78
2017-10-15T11:22:27.348Z,25.92
2017-10-15T11:24:54.925Z,26.26
2017-10-15T11:27:22.471Z,26.32
2017-10-15T11:29:50.052Z,26.23
2017-10-15T11:32:17.598Z,26.03
2017-10-15T11:34:45.397Z,26.13
2017-10-15T11:37:13.217Z,26.14
2017-10-15T11:39:40.837Z,25.93
2017-10-15T11:42:08.340Z,26.17
2017-10-15T11:44:35.898Z,26.14
2017-10-15T11:47:03.491Z,26.12
2017-10-15T11:49:31.311Z,26.27
2017-10-15T11:51:58.850Z,26.52
2017-10-15T11:54:26.586Z,26.18
2017-10-15T11:56:54.214Z,26.29
2017-10-15T11:59:21.787Z,26.16
2017-10-15T12:01:49.499Z,26.10
2017-10-15T12:04:17.054Z,25.84
2017-10-15T12:06:44.638Z,26.14
2017-10-15T12:09:12.213Z,26.38
2017-10-15T12:11:39.767Z,26.22
2017-10-15T12:14:07.384Z,26.47
2017-10-15T12:16:34.995Z,26.38
2017-10-15T12:19:02.551Z,26.36
2017-10-15T12:21:30.150Z,26.08
2017-10-15T12:23:57.754Z,25.88
2017-10-15T12:26:25.855Z,26.01
2017-10-15T12:28:53.757Z,25.78
2017-10-15T12:31:21.522Z,25.95
2017-10-15T12:33:49.097Z,26.01
2017-10-15T12:36:16.634Z,26.05
2017-10-15T12:38:44.277Z,25.77
2017-10-15T12:41:11.823Z,25.68
2017-10-15T12:43:40.548Z,25.98
2017-10-15T12:46:08.438Z,26.05
2017-10-15T12:48:36.413Z,26.00
2017-10-15T12:53:44.905Z,25.99
2017-10-15T12:56:12.610Z,25.73
2017-10-15T12:58:40.407Z,25.77
2017-10-15T13:01:08.381Z,25.97
2017-10-15T13:03:36.254Z,25.98
2017-10-15T13:06:04.090Z,26.13
2017-10-15T13:08:32.073Z,26.12
2017-10-15T13:11:00.087Z,26.04
2017-10-15T13:13:28.659Z,26.02
2017-10-15T13:15:56.708Z,25.93
2017-10-15T13:18:24.667Z,25.62
2017-10-15T13:20:53.045Z,25.32
2017-10-15T13:23:21.486Z,25.26
2017-10-15T13:25:49.960Z,25.09
2017-10-15T13:28:18.368Z,24.93
2017-10-15T13:30:46.413Z,25.07
2017-10-15T13:33:14.538Z,25.07
2017-10-15T13:35:42.898Z,24.95
2017-10-15T13:38:12.327Z,24.93
2017-10-15T13:40:40.475Z,24.66
2017-10-15T13:43:08.749Z,24.53
2017-10-15T13:45:37.203Z,24.40
2017-10-15T13:48:05.319Z,24.28
2017-10-15T13:50:33.438Z,24.27
2017-10-15T13:53:01.480Z,24.06
2017-10-15T13:55:29.508Z,24.02
2017-10-15T13:57:58.187Z,24.06
2017-10-15T14:00:26.399Z,24.03
2017-10-15T14:02:55.558Z,24.04
2017-10-15T14:05:24.622Z,23.92
2017-10-15T14:07:54.089Z,23.89
2017-10-15T14:10:22.853Z,23.68
2017-10-15T14:12:51.972Z,23.91
2017-10-15T14:15:21.316Z,23.85
2017-10-15T14:17:51.852Z,23.44
2017-10-15T14:20:21.210Z,23.42
2017-10-15T14:22:50.174Z,23.42
2017-10-15T14:25:19.306Z,23.50
2017-10-15T14:27:47.970Z,23.22
2017-10-15T14:30:18.521Z,23.13
2017-10-15T14:32:47.199Z,23.18
2017-10-15T14:35:16.179Z,23.20
2017-10-15T14:37:45.351Z,23.27
2017-10-15T14:40:14.239Z,23.08
2017-10-15T14:42:42.723Z,22.99
2017-10-15T14:45:12.726Z,22.92
2017-10-15T14:47:47.459Z,22.92
2017-10-15T14:50:15.993Z,22.87
2017-10-15T14:52:44.681Z,22.71
2017-10-15T14:55:14.209Z,22.76
2017-10-15T14:57:43.465Z,22.62
2017-10-15T15:00:13.193Z,22.42
2017-10-15T15:02:41.662Z,22.44
2017-10-15T15:05:10.670Z,22.33
2017-10-15T15:07:40.117Z,22.16
2017-10-15T15:10:22.227Z,22.25
2017-10-15T15:13:08.957Z,22.08
2017-10-15T15:15:43.291Z,22.13
2017-10-15T15:18:13.434Z,21.98
2017-10-15T15:20:42.588Z,21.88
2017-10-15T15:23:12.723Z,21.85
2017-10-15T15:25:42.085Z,21.91
2017-10-15T15:28:11.612Z,21.77
2017-10-15T15:30:44.739Z,21.72
2017-10-15T15:33:15.994Z,21.59
2017-10-15T15:35:45.454Z,21.48
2017-10-15T15:38:14.458Z,21.49
2017-10-15T15:40:44.029Z,21.40
2017-10-15T15:43:16.144Z,21.29
2017-10-15T15:45:45.754Z,21.26
2017-10-15T15:48:14.737Z,21.23
2017-10-15T15:50:44.538Z,21.20
2017-10-15T15:53:13.150Z,21.15
2017-10-15T15:55:41.412Z,21.05
2017-10-15T15:58:10.116Z,21.06
2017-10-15T16:00:38.933Z,20.98
2017-10-15T16:03:07.218Z,20.96
2017-10-15T16:05:35.876Z,20.92
2017-10-15T16:08:04.587Z,20.75
2017-10-15T16:10:33.212Z,20.71
2017-10-15T16:13:01.634Z,20.72
2017-10-15T16:15:30.339Z,20.66
2017-10-15T16:17:59.305Z,20.66
2017-10-15T16:20:28.471Z,20.56
2017-10-15T16:22:58.901Z,20.46
2017-10-15T16:25:28.504Z,20.30
2017-10-15T16:27:59.115Z,20.36
2017-10-15T16:30:28.621Z,20.37
2017-10-15T16:32:57.589Z,20.28
2017-10-15T16:35:26.143Z,20.17
2017-10-15T16:37:54.721Z,20.08
2017-10-15T16:40:23.207Z,19.98
2017-10-15T16:42:53.305Z,19.96
2017-10-15T16:45:23.346Z,19.94
2017-10-15T16:47:51.883Z,19.80
2017-10-15T16:50:20.690Z,19.75
2017-10-15T16:52:50.219Z,19.69
2017-10-15T16:55:19.816Z,19.66
2017-10-15T16:57:50.956Z,19.56
2017-10-15T17:00:19.617Z,19.57
2017-10-15T17:02:48.439Z,19.57
2017-10-15T17:05:16.936Z,19.50
2017-10-15T17:07:45.916Z,19.58
2017-10-15T17:10:14.507Z,19.46
2017-10-15T17:12:43.297Z,19.40
2017-10-15T17:15:12.259Z,19.41
2017-10-15T17:17:41.535Z,19.33
2017-10-15T17:20:10.496Z,19.29
2017-10-15T17:22:39.234Z,19.14
2017-10-15T17:25:08.126Z,19.15
2017-10-15T17:27:36.980Z,19.23
2017-10-15T17:30:09.319Z,19.13
2017-10-15T17:32:38.013Z,19.13
2017-10-15T17:35:06.990Z,19.06
2017-10-15T17:37:36.073Z,19.06
2017-10-15T17:40:05.273Z,19.04
2017-10-15T17:42:34.425Z,19.11
2017-10-15T17:45:02.962Z,19.08
2017-10-15T17:47:31.680Z,19.00
2017-10-15T17:50:01.001Z,18.95
2017-10-15T17:52:29.824Z,18.94
2017-10-15T17:54:58.362Z,19.02
2017-10-15T17:57:27.008Z,18.91
2017-10-15T17:59:55.594Z,18.84
2017-10-15T18:02:36.759Z,18.77
2017-10-15T18:05:06.256Z,18.71
2017-10-15T18:07:36.077Z,18.72
2017-10-15T18:10:05.034Z,18.75
2017-10-15T18:12:33.928Z,18.64
2017-10-15T18:15:02.844Z,18.57
2017-10-15T18:17:32.752Z,18.52
2017-10-15T18:20:01.754Z,18.53
2017-10-15T18:22:30.940Z,18.68
2017-10-15T18:24:59.649Z,18.54
2017-10-15T18:27:29.656Z,18.51
2017-10-15T18:29:59.369Z,18.48
2017-10-15T18:32:28.834Z,18.50
2017-10-15T18:34:57.391Z,18.48
2017-10-15T18:37:26.022Z,18.45
2017-10-15T18:39:54.884Z,18.39
2017-10-15T18:42:23.386Z,18.39
2017-10-15T18:44:51.563Z,18.49
2017-10-15T18:47:20.166Z,18.35
2017-10-15T18:49:48.483Z,18.26
2017-10-15T18:52:16.930Z,18.30
2017-10-15T18:54:45.640Z,18.37
2017-10-15T18:57:16.091Z,18.39
2017-10-15T18:59:51.657Z,18.35
2017-10-15T19:02:21.605Z,18.23
2017-10-15T19:04:51.265Z,18.23
2017-10-15T19:07:21.123Z,18.18
2017-10-15T19:09:52.150Z,18.15
2017-10-15T19:12:21.525Z,18.00
2017-10-15T19:14:50.675Z,18.00
2017-10-15T19:17:19.154Z,18.07
2017-10-15T19:19:48.447Z,18.08
2017-10-15T19:22:17.167Z,18.00
2017-10-15T19:24:45.498Z,17.97
2017-10-15T19:27:13.613Z,17.90
2017-10-15T19:29:42.063Z,17.81
2017-10-15T19:32:10.554Z,17.93
2017-10-15T19:34:39.002Z,17.89
2017-10-15T19:37:07.215Z,17.90
2017-10-15T19:39:35.542Z,17.87
2017-10-15T19:42:04.008Z,17.94
2017-10-15T19:44:32.619Z,17.93
2017-10-15T19:47:00.798Z,17.86
2017-10-15T19:49:29.028Z,17.81
2017-10-15T19:51:57.307Z,17.86
2017-10-15T19:54:25.313Z,17.81
2017-10-15T19:56:53.113Z,17.82
2017-10-15T19:59:21.157Z,17.80
2017-10-15T20:01:49.162Z,17.79
2017-10-15T20:04:17.128Z,17.85
2017-10-15T20:06:44.791Z,17.83
2017-10-15T20:09:12.831Z,17.72
2017-10-15T20:11:40.685Z,17.72
2017-10-15T20:14:08.627Z,17.68
2017-10-15T20:16:37.275Z,17.60
2017-10-15T20:19:05.254Z,17.59
2017-10-15T20:21:33.397Z,17.56
2017-10-15T20:24:01.507Z,17.57
2017-10-15T20:26:29.613Z,17.57
2017-10-15T20:28:57.636Z,17.56
2017-10-15T20:31:25.982Z,17.49
2017-10-15T20:33:54.381Z,17.48
2017-10-15T20:36:23.146Z,17.56
2017-10-15T20:38:50.906Z,17.48
2017-10-15T20:41:18.752Z,17.39
2017-10-15T20:43:48.919Z,17.40
2017-10-15T20:46:16.892Z,17.33
2017-10-15T20:48:44.801Z,17.34
2017-10-15T20:51:12.739Z,17.29
2017-10-15T20:53:40.907Z,17.32
2017-10-15T20:56:08.969Z,17.32
2017-10-15T20:58:36.608Z,17.15
2017-10-15T21:01:04.235Z,17.09
2017-10-15T21:03:31.846Z,17.07
2017-10-15T21:05:59.475Z,17.08
2017-10-15T21:08:27.111Z,17.01
2017-10-15T21:10:54.694Z,17.14
2017-10-15T21:13:22.271Z,17.12
2017-10-15T21:15:50.121Z,17.06
2017-10-15T21:18:17.751Z,16.98
2017-10-15T21:20:45.387Z,17.16
2017-10-15T21:23:13.059Z,17.08
2017-10-15T21:25:40.682Z,17.05
2017-10-15T21:28:09.323Z,17.04
2017-10-15T21:30:36.911Z,17.01
2017-10-15T21:33:04.566Z,17.10
2017-10-15T21:35:32.369Z,17.00
2017-10-15T21:38:00.119Z,16.98
2017-10-15T21:40:27.823Z,17.06
2017-10-15T21:42:55.552Z,17.10
2017-10-15T21:45:23.187Z,17.14
2017-10-15T21:47:51.119Z,17.17
2017-10-15T21:50:18.833Z,17.17
2017-10-15T21:52:46.703Z,17.04
2017-10-15T21:55:14.276Z,17.13
2017-10-15T21:57:42.648Z,17.00
2017-10-15T22:00:13.118Z,16.99
2017-10-15T22:02:41.209Z,16.88
2017-10-15T22:05:13.168Z,16.92
2017-10-15T22:07:40.999Z,16.85
2017-10-15T22:10:09.844Z,16.89
2017-10-15T22:12:39.167Z,16.96
2017-10-15T22:15:13.022Z,16.90
2017-10-15T22:17:42.297Z,16.87
2017-10-15T22:20:10.323Z,16.71
2017-10-15T22:22:40.691Z,16.78
2017-10-15T22:25:13.099Z,16.88
2017-10-15T22:27:45.105Z,16.75
2017-10-15T22:30:13.114Z,16.76
2017-10-15T22:32:41.162Z,16.74
2017-10-15T22:35:08.988Z,16.67
2017-10-15T22:37:36.832Z,16.46
2017-10-15T22:40:05.421Z,16.29
2017-10-15T22:42:33.209Z,16.18
2017-10-15T22:45:01.172Z,16.09
2017-10-15T22:47:28.862Z,15.81
2017-10-15T22:50:02.793Z,15.55
2017-10-15T22:52:30.656Z,15.21
2017-10-15T22:54:58.575Z,15.02
2017-10-15T22:57:26.276Z,15.15
2017-10-15T22:59:54.046Z,15.27
2017-10-15T23:02:21.771Z,15.30
2017-10-15T23:04:49.459Z,15.24
2017-10-15T23:07:17.450Z,15.35
2017-10-15T23:09:45.107Z,15.20
2017-10-15T23:12:12.788Z,15.25
2017-10-15T23:14:40.764Z,15.34
2017-10-15T23:17:08.464Z,15.08
2017-10-15T23:19:36.087Z,14.98
2017-10-15T23:22:03.885Z,15.04
2017-10-15T23:24:31.535Z,14.89
2017-10-15T23:26:59.074Z,14.66
2017-10-15T23:29:26.683Z,14.34
2017-10-15T23:31:54.349Z,14.13
2017-10-15T23:34:22.184Z,14.21
2017-10-15T23:36:49.957Z,14.11
2017-10-15T23:39:17.567Z,14.28
2017-10-15T23:41:45.107Z,14.32
2017-10-15T23:44:12.784Z,14.24
2017-10-15T23:46:40.399Z,14.11
2017-10-15T23:49:07.940Z,14.15
2017-10-15T23:51:35.503Z,13.93
2017-10-15T23:54:03.145Z,13.86
2017-10-15T23:56:30.715Z,14.16
2017-10-15T23:58:58.322Z,14.36
